createdAt,value
2023-03-17T00:02:21.298Z,100454.28
2023-03-17T00:06:29.390Z,100457.69
2023-03-17T00:10:33.900Z,100458.53
2023-03-17T00:14:37.293Z,100471.41
2023-03-17T00:18:40.687Z,100458.25
2023-03-17T00:22:44.636Z,100446.69
2023-03-17T00:26:49.070Z,100443.09
2023-03-17T00:30:55.774Z,100445.44
2023-03-17T00:34:58.908Z,100446.25
2023-03-17T00:39:02.107Z,100431.53
2023-03-17T00:43:08.298Z,100427.84
2023-03-17T00:47:13.241Z,100432.16
2023-03-17T00:51:16.697Z,100424.22
2023-03-17T00:55:19.960Z,100411.06
2023-03-17T00:59:30.813Z,100404.78
2023-03-17T01:03:34.467Z,100397.69
2023-03-17T01:07:38.213Z,100392.03
2023-03-17T01:11:42.202Z,100387.56
2023-03-17T01:15:48.644Z,100383.00
2023-03-17T01:19:51.862Z,100369.78
2023-03-17T01:23:55.091Z,100361.97
2023-03-17T01:28:00.299Z,100366.13
2023-03-17T01:32:04.945Z,100364.34
2023-03-17T01:36:08.750Z,100361.59
2023-03-17T01:40:17.266Z,100351.78
2023-03-17T01:44:20.688Z,100348.28
2023-03-17T01:48:26.116Z,100336.81
2023-03-17T01:52:30.379Z,100328.88
2023-03-17T01:56:35.212Z,100332.09
2023-03-17T02:00:41.914Z,100335.38
2023-03-17T02:04:46.812Z,100342.84
2023-03-17T02:08:49.871Z,100333.09
2023-03-17T02:12:56.724Z,100329.25
2023-03-17T02:17:00.295Z,100321.31
2023-03-17T02:25:38.692Z,100327.00
2023-03-17T02:29:42.578Z,100321.72
2023-03-17T02:33:46.062Z,100320.69
2023-03-17T02:37:49.083Z,100324.88
2023-03-17T02:41:53.723Z,100315.97
2023-03-17T02:45:56.846Z,100316.59
2023-03-17T02:50:00.050Z,100307.78
2023-03-17T02:54:03.283Z,100309.44
2023-03-17T02:58:07.765Z,100316.94
2023-03-17T03:02:11.564Z,100319.44
2023-03-17T03:06:15.200Z,100325.56
2023-03-17T03:10:18.924Z,100331.63
2023-03-17T03:14:23.506Z,100325.56
2023-03-17T03:18:26.753Z,100325.56
2023-03-17T03:22:30.058Z,100320.94
2023-03-17T03:26:33.150Z,100326.91
2023-03-17T03:30:38.492Z,100312.75
2023-03-17T03:34:41.652Z,100301.41
2023-03-17T03:38:44.755Z,100290.13
2023-03-17T03:42:48.278Z,100291.59
2023-03-17T03:46:52.959Z,100294.97
2023-03-17T03:50:58.124Z,100289.69
2023-03-17T03:55:01.308Z,100270.56
2023-03-17T03:59:04.477Z,100281.75
2023-03-17T04:03:08.954Z,100273.97
2023-03-17T04:07:12.575Z,100283.41
2023-03-17T04:11:16.716Z,100282.44
2023-03-17T04:15:21.168Z,100284.09
2023-03-17T04:19:25.668Z,100288.38
2023-03-17T04:23:28.956Z,100275.47
2023-03-17T04:27:32.354Z,100280.53
2023-03-17T04:31:35.486Z,100283.66
2023-03-17T04:35:39.926Z,100281.00
2023-03-17T04:39:43.014Z,100278.03
2023-03-17T04:43:46.149Z,100275.28
2023-03-17T04:47:49.307Z,100277.75
2023-03-17T04:51:53.773Z,100275.75
2023-03-17T04:55:57.702Z,100273.75
2023-03-17T05:00:00.978Z,100267.69
2023-03-17T05:04:04.385Z,100272.78
2023-03-17T05:08:08.937Z,100271.84
2023-03-17T05:12:12.488Z,100266.34
2023-03-17T05:16:15.775Z,100278.34
2023-03-17T05:20:18.918Z,100267.09
2023-03-17T05:24:23.432Z,100275.84
2023-03-17T05:28:26.787Z,100264.72
2023-03-17T05:32:29.869Z,100268.41
2023-03-17T05:36:33.538Z,100277.97
2023-03-17T05:40:38.193Z,100278.22
2023-03-17T05:44:41.251Z,100281.97
2023-03-17T05:48:45.113Z,100280.41
2023-03-17T05:52:49.209Z,100274.03
2023-03-17T05:56:54.185Z,100274.59
2023-03-17T06:00:57.517Z,100268.31
2023-03-17T06:05:00.632Z,100268.88
2023-03-17T06:09:05.793Z,100277.16
2023-03-17T06:13:11.151Z,100265.38
2023-03-17T06:17:14.572Z,100266.91
2023-03-17T06:21:17.605Z,100253.44
2023-03-17T06:25:20.955Z,100269.63
2023-03-17T06:29:25.941Z,100253.91
2023-03-17T06:33:29.964Z,100261.72
2023-03-17T06:37:33.442Z,100257.50
2023-03-17T06:41:36.734Z,100250.50
2023-03-17T06:45:43.023Z,100243.81
2023-03-17T06:49:46.535Z,100251.50
2023-03-17T06:53:49.572Z,100238.97
2023-03-17T06:57:52.795Z,100247.47
2023-03-17T07:01:57.866Z,100257.66
2023-03-17T07:06:01.723Z,100267.00
2023-03-17T07:10:05.787Z,100263.44
2023-03-17T07:14:09.054Z,100256.25
2023-03-17T07:18:13.545Z,100253.34
2023-03-17T07:22:16.591Z,100250.41
2023-03-17T07:26:19.813Z,100248.38
2023-03-17T07:30:22.894Z,100258.72
2023-03-17T07:34:28.259Z,100265.47
2023-03-17T07:38:31.421Z,100260.88
2023-03-17T07:42:34.451Z,100242.31
2023-03-17T07:46:38.771Z,100242.78
2023-03-17T07:50:43.578Z,100231.94
2023-03-17T07:54:46.687Z,100235.03
2023-03-17T07:58:49.905Z,100236.38
2023-03-17T08:03:07.094Z,100241.16
2023-03-17T08:07:14.743Z,100210.03
2023-03-17T08:11:18.928Z,100218.22
2023-03-17T08:15:22.076Z,100211.47
2023-03-17T08:19:25.669Z,100209.78
2023-03-17T08:23:31.085Z,100217.88
2023-03-17T08:27:34.336Z,100212.00
2023-03-17T08:31:38.396Z,100211.44
2023-03-17T08:35:42.780Z,100204.72
2023-03-17T08:39:47.203Z,100208.50
2023-03-17T08:43:51.683Z,100203.38
2023-03-17T08:47:54.869Z,100211.38
2023-03-17T08:51:57.995Z,100213.22
2023-03-17T08:56:02.713Z,100201.81
2023-03-17T09:00:11.118Z,100200.31
2023-03-17T09:04:15.000Z,100198.81
2023-03-17T09:08:18.121Z,100194.47
2023-03-17T09:12:26.989Z,100194.66
2023-03-17T09:16:33.920Z,100201.75
2023-03-17T09:20:37.277Z,100217.53
2023-03-17T09:24:40.551Z,100223.72
2023-03-17T09:28:45.228Z,100212.50
2023-03-17T09:32:48.558Z,100210.91
2023-03-17T09:36:51.657Z,100213.69
2023-03-17T09:40:59.850Z,100220.78
2023-03-17T09:45:21.144Z,100211.19
2023-03-17T09:49:30.586Z,100189.41
2023-03-17T09:53:37.618Z,100186.84
2023-03-17T09:57:41.631Z,100178.16
2023-03-17T10:01:46.521Z,100191.41
2023-03-17T10:05:49.770Z,100199.38
2023-03-17T10:10:01.567Z,100195.03
2023-03-17T10:14:12.341Z,100171.38
2023-03-17T10:18:18.339Z,100145.16
2023-03-17T10:22:26.455Z,100165.41
2023-03-17T10:26:33.377Z,100161.19
2023-03-17T10:30:36.636Z,100173.59
2023-03-17T10:34:42.913Z,100154.44
2023-03-17T10:38:54.221Z,100143.16
2023-03-17T10:43:07.853Z,100156.41
2023-03-17T10:47:24.183Z,100152.97
2023-03-17T10:51:32.348Z,100138.19
2023-03-17T10:55:42.586Z,100128.63
2023-03-17T10:59:53.821Z,100126.00
2023-03-17T11:03:57.506Z,100129.56
2023-03-17T11:08:11.401Z,100140.13
2023-03-17T11:12:25.566Z,100134.88
2023-03-17T11:16:28.806Z,100118.22
2023-03-17T11:20:52.533Z,100125.28
2023-03-17T11:25:06.503Z,100115.66
2023-03-17T11:29:22.608Z,100133.28
2023-03-17T11:33:48.271Z,100114.00
2023-03-17T11:38:14.060Z,100104.34
2023-03-17T11:42:24.670Z,100103.50
2023-03-17T11:46:31.485Z,100089.44
2023-03-17T11:50:41.733Z,100083.28
2023-03-17T11:54:54.167Z,100069.22
2023-03-17T11:59:03.510Z,100060.41
2023-03-17T12:03:17.684Z,100043.66
2023-03-17T12:07:24.534Z,100034.84
2023-03-17T12:11:30.352Z,100052.47
2023-03-17T12:15:39.382Z,100046.31
2023-03-17T12:19:47.162Z,100054.22
2023-03-17T12:23:52.417Z,100045.44
2023-03-17T12:28:02.053Z,100033.97
2023-03-17T12:32:13.317Z,100026.00
2023-03-17T12:36:18.851Z,100015.44
2023-03-17T12:40:25.251Z,100018.97
2023-03-17T12:44:41.695Z,100021.59
2023-03-17T12:49:02.264Z,100012.78
2023-03-17T12:53:20.329Z,100003.06
2023-03-17T12:57:29.774Z,99995.16
2023-03-17T13:01:35.130Z,99977.56
2023-03-17T13:05:41.556Z,99974.91
2023-03-17T13:09:48.200Z,99971.38
2023-03-17T13:14:24.811Z,99973.13
2023-03-17T13:18:50.357Z,99958.13
2023-03-17T13:23:14.128Z,99969.56
2023-03-17T13:27:52.566Z,99966.09
2023-03-17T13:32:29.752Z,99959.91
2023-03-17T13:36:41.966Z,99959.00
2023-03-17T13:41:03.060Z,99951.94
2023-03-17T13:45:20.919Z,99944.84
2023-03-17T13:49:28.480Z,99946.63
2023-03-17T13:53:36.842Z,99931.69
2023-03-17T13:57:41.245Z,99921.13
2023-03-17T14:01:52.180Z,99922.03
2023-03-17T14:06:17.146Z,99913.22
2023-03-17T14:10:23.910Z,99910.63
2023-03-17T14:14:38.296Z,99912.41
2023-03-17T14:18:46.473Z,99915.03
2023-03-17T14:22:54.798Z,99918.56
2023-03-17T14:26:58.218Z,99907.09
2023-03-17T14:31:05.511Z,99904.44
2023-03-17T14:35:15.457Z,99904.44
2023-03-17T14:39:24.577Z,99901.84
2023-03-17T14:43:27.613Z,99900.94
2023-03-17T14:47:38.501Z,99899.16
2023-03-17T14:51:43.066Z,99899.16
2023-03-17T14:55:46.632Z,99890.38
2023-03-17T14:59:57.947Z,99878.06
2023-03-17T15:04:11.478Z,99886.00
2023-03-17T15:08:46.973Z,99876.31
2023-03-17T15:12:50.307Z,99878.13
2023-03-17T15:16:54.153Z,99876.38
2023-03-17T15:21:00.316Z,99878.19
2023-03-17T15:25:05.872Z,99874.69
2023-03-17T15:29:08.900Z,99872.03
2023-03-17T15:33:22.210Z,99851.78
2023-03-17T15:37:29.257Z,99850.06
2023-03-17T15:41:32.610Z,99844.81
2023-03-17T15:45:35.803Z,99836.03
2023-03-17T15:49:39.134Z,99848.34
2023-03-17T15:53:43.531Z,99843.09
2023-03-17T15:57:54.772Z,99835.22
2023-03-17T16:01:58.420Z,99850.16
2023-03-17T16:06:02.883Z,99848.41
2023-03-17T16:10:17.736Z,99843.16
2023-03-17T16:14:20.791Z,99831.72
2023-03-17T16:18:30.958Z,99827.31
2023-03-17T16:22:40.505Z,99833.47
2023-03-17T16:26:44.936Z,99837.91
2023-03-17T16:30:49.234Z,99834.41
2023-03-17T16:34:52.364Z,99839.63
2023-03-17T16:38:55.553Z,99841.38
2023-03-17T16:43:00.199Z,99839.63
2023-03-17T16:47:04.054Z,99843.16
2023-03-17T16:51:08.253Z,99846.66
2023-03-17T16:55:11.625Z,99848.41
2023-03-17T16:59:21.000Z,99851.00
2023-03-17T17:03:24.093Z,99860.69
2023-03-17T17:07:27.584Z,99860.66
2023-03-17T17:11:31.410Z,99858.03
2023-03-17T17:15:36.880Z,99864.13
2023-03-17T17:19:39.881Z,99864.13
2023-03-17T17:23:42.914Z,99869.38
2023-03-17T17:27:47.570Z,99874.63
2023-03-17T17:31:52.052Z,99864.06
2023-03-17T17:35:57.280Z,99864.06
2023-03-17T17:40:00.548Z,99871.06
2023-03-17T17:44:09.388Z,99856.09
2023-03-17T17:48:13.764Z,99851.69
2023-03-17T17:52:18.126Z,99849.91
2023-03-17T17:56:21.292Z,99847.25
2023-03-17T18:00:25.735Z,99844.63
2023-03-17T18:04:30.327Z,99855.13
2023-03-17T18:08:34.424Z,99842.81
2023-03-17T18:12:40.568Z,99833.13
2023-03-17T18:16:43.632Z,99850.63
2023-03-17T18:20:48.037Z,99840.94
2023-03-17T18:24:51.321Z,99844.41
2023-03-17T18:28:54.337Z,99842.63
2023-03-17T18:33:01.704Z,99846.94
2023-03-17T18:37:07.662Z,99842.53
2023-03-17T18:41:12.405Z,99835.47
2023-03-17T18:45:15.944Z,99832.84
2023-03-17T18:49:19.093Z,99838.06
2023-03-17T18:53:23.990Z,99835.38
2023-03-17T18:57:28.289Z,99840.63
2023-03-17T19:01:31.526Z,99833.59
2023-03-17T19:05:37.572Z,99833.53
2023-03-17T19:09:42.420Z,99830.88
2023-03-17T19:13:46.399Z,99825.56
2023-03-17T19:17:50.447Z,99834.28
2023-03-17T19:21:53.625Z,99821.09
2023-03-17T19:25:58.006Z,99824.63
2023-03-17T19:30:01.126Z,99830.69
2023-03-17T19:34:04.185Z,99831.50
2023-03-17T19:38:08.267Z,99821.88
2023-03-17T19:42:13.301Z,99828.81
2023-03-17T19:46:16.591Z,99827.06
2023-03-17T19:50:20.672Z,99818.25
2023-03-17T19:54:23.738Z,99813.81
2023-03-17T19:58:28.168Z,99823.41
2023-03-17T20:02:31.462Z,99814.59
2023-03-17T20:06:34.875Z,99817.19
2023-03-17T20:10:39.278Z,99825.00
2023-03-17T20:14:44.010Z,99817.09
2023-03-17T20:18:47.131Z,99811.81
2023-03-17T20:22:50.148Z,99817.91
2023-03-17T20:26:54.669Z,99826.63
2023-03-17T20:31:02.996Z,99830.09
2023-03-17T20:35:07.981Z,99823.91
2023-03-17T20:39:14.816Z,99818.66
2023-03-17T20:43:18.119Z,99816.88
2023-03-17T20:47:22.766Z,99818.59
2023-03-17T20:51:26.051Z,99820.28
2023-03-17T20:55:30.860Z,99815.00
2023-03-17T20:59:34.478Z,99816.69
2023-03-17T21:03:39.068Z,99810.56
2023-03-17T21:07:43.398Z,99806.16
2023-03-17T21:11:46.574Z,99800.91
2023-03-17T21:15:49.707Z,99806.09
2023-03-17T21:19:54.670Z,99804.25
2023-03-17T21:23:57.976Z,99797.25
2023-03-17T21:28:01.594Z,99798.13
2023-03-17T21:32:05.534Z,99796.31
2023-03-17T21:36:11.189Z,99794.53
2023-03-17T21:40:15.723Z,99780.50
2023-03-17T21:44:20.092Z,99777.81
2023-03-17T21:48:23.298Z,99783.88
2023-03-17T21:52:27.946Z,99790.78
2023-03-17T21:56:31.486Z,99775.88
2023-03-17T22:00:44.706Z,99770.63
2023-03-17T22:04:48.806Z,99785.41
2023-03-17T22:08:53.476Z,99774.88
2023-03-17T22:12:56.514Z,99779.19
2023-03-17T22:16:59.670Z,99783.47
2023-03-17T22:21:02.826Z,99775.53
2023-03-17T22:25:08.346Z,99765.91
2023-03-17T22:29:11.383Z,99766.75
2023-03-17T22:33:14.835Z,99767.59
2023-03-17T22:37:17.877Z,99771.88
2023-03-17T22:41:27.104Z,99766.63
2023-03-17T22:45:30.317Z,99778.81
2023-03-17T22:49:33.620Z,99762.13
2023-03-17T22:53:37.754Z,99762.94
2023-03-17T22:57:42.144Z,99768.13
2023-03-17T23:01:45.895Z,99770.75
2023-03-17T23:05:50.515Z,99762.88
2023-03-17T23:09:53.746Z,99763.63
2023-03-17T23:13:58.598Z,99749.56
2023-03-17T23:18:01.765Z,99750.44
2023-03-17T23:22:04.929Z,99753.84
2023-03-17T23:26:09.336Z,99752.09
2023-03-17T23:30:15.344Z,99756.44
2023-03-17T23:34:18.610Z,99759.00
2023-03-17T23:38:22.000Z,99748.53
2023-03-17T23:42:25.032Z,99755.47
2023-03-17T23:46:29.453Z,99753.63
2023-03-17T23:50:33.191Z,99747.44
2023-03-17T23:54:36.487Z,99756.97
2023-03-17T23:58:39.613Z,99754.31
